Time;durP1;ratioP1;P1;durP2;ratioP2;P2;SDS_P1;SDS_P2;PMS_P1;PMS_P2;Temp;Humidity;BMP_temperature;BMP_pressure;BME280_temperature;BME280_humidity;BME280_pressure;Samples;Min_cycle;Max_cycle;Signal;HPM_P1;HPM_P2
2021/11/02 00:00:27;;;;;;;4.78;1.90;;;;;;;;;;5052135;28;20413;-57
2021/11/02 00:02:53;;;;;;;3.28;1.75;;;;;;;;;;5043559;28;20026;-57
2021/11/02 00:05:19;;;;;;;9.63;2.03;;;;;;;;;;5031930;28;20025;-57
2021/11/02 00:07:48;;;;;;;3.03;1.63;;;;;;;;;;5031126;28;20034;-57
2021/11/02 00:10:14;;;;;;;3.47;2.13;;;;;;;;;;5032022;28;20592;-57
2021/11/02 00:12:41;;;;;;;5.90;2.35;;;;;;;;;;5032175;28;20376;-57
2021/11/02 00:15:07;;;;;;;3.65;2.35;;;;;;;;;;5032000;28;20044;-56
2021/11/02 00:17:37;;;;;;;3.20;2.38;;;;;;;;;;5031709;28;20091;-57
2021/11/02 00:20:04;;;;;;;2.95;2.03;;;;;;;;;;5031747;28;20026;-57
2021/11/02 00:22:32;;;;;;;3.78;2.85;;;;;;;;;;5031877;28;20108;-57
2021/11/02 00:25:05;;;;;;;4.82;2.10;;;;;;;;;;5031930;28;20036;-57
2021/11/02 00:27:32;;;;;;;4.43;3.03;;;;;;;;;;5031220;28;20026;-57
2021/11/02 00:29:58;;;;;;;4.65;3.05;;;;;;;;;;5031534;28;20029;-57
2021/11/02 00:32:24;;;;;;;2.53;1.77;;;;;;;;;;5031720;28;20621;-57
2021/11/02 00:34:50;;;;;;;2.92;2.08;;;;;;;;;;5032063;28;20038;-57
2021/11/02 00:37:17;;;;;;;5.70;2.53;;;;;;;;;;5031306;28;20382;-57
2021/11/02 00:39:43;;;;;;;8.18;3.25;;;;;;;;;;5031805;28;20026;-57
2021/11/02 00:42:09;;;;;;;3.55;2.22;;;;;;;;;;5034821;28;20036;-57
2021/11/02 00:44:36;;;;;;;7.82;3.47;;;;;;;;;;5035636;28;20030;-57
2021/11/02 00:47:02;;;;;;;3.60;2.72;;;;;;;;;;5034611;28;20033;-56
2021/11/02 00:49:28;;;;;;;3.08;2.13;;;;;;;;;;5035775;28;20029;-57
2021/11/02 00:51:54;;;;;;;5.63;2.97;;;;;;;;;;5035690;28;20121;-57
2021/11/02 00:54:20;;;;;;;4.10;2.17;;;;;;;;;;5035719;28;20033;-57
2021/11/02 00:56:46;;;;;;;5.22;2.10;;;;;;;;;;5034660;28;20048;-57
2021/11/02 00:59:12;;;;;;;4.50;1.73;;;;;;;;;;5035436;28;20043;-57
2021/11/02 01:01:38;;;;;;;2.45;1.55;;;;;;;;;;5035139;28;20067;-57
2021/11/02 01:04:05;;;;;;;6.30;1.58;;;;;;;;;;5053331;28;20028;-57
2021/11/02 01:06:32;;;;;;;2.20;1.40;;;;;;;;;;5054495;28;20025;-57
2021/11/02 01:08:58;;;;;;;4.95;1.73;;;;;;;;;;5054922;28;20415;-57
2021/11/02 01:11:25;;;;;;;2.47;1.40;;;;;;;;;;5055188;28;20075;-57
2021/11/02 01:13:51;;;;;;;3.33;1.27;;;;;;;;;;5055370;28;20051;-57
2021/11/02 01:16:20;;;;;;;2.30;0.88;;;;;;;;;;5053945;28;20111;-58
2021/11/02 01:18:45;;;;;;;2.03;1.10;;;;;;;;;;5054883;28;20033;-57
2021/11/02 01:21:12;;;;;;;1.77;1.13;;;;;;;;;;5054883;28;20228;-56
2021/11/02 01:23:38;;;;;;;2.60;1.23;;;;;;;;;;5054537;28;20033;-57
2021/11/02 01:26:04;;;;;;;2.03;1.13;;;;;;;;;;5054650;28;20079;-57
2021/11/02 01:28:30;;;;;;;2.17;1.15;;;;;;;;;;5053915;28;20033;-57
2021/11/02 01:30:56;;;;;;;2.97;0.73;;;;;;;;;;5054303;28;20035;-56
2021/11/02 01:33:22;;;;;;;3.95;1.45;;;;;;;;;;5054727;28;20036;-56
2021/11/02 01:35:48;;;;;;;1.88;0.95;;;;;;;;;;5054547;28;20036;-56
2021/11/02 01:38:16;;;;;;;2.00;1.27;;;;;;;;;;5054044;28;20471;-57
2021/11/02 01:40:42;;;;;;;3.33;1.55;;;;;;;;;;5054395;28;20478;-57
2021/11/02 01:43:08;;;;;;;2.15;1.27;;;;;;;;;;5086552;28;20067;-57
2021/11/02 01:45:34;;;;;;;7.47;1.52;;;;;;;;;;5054324;28;20044;-57
2021/11/02 01:48:00;;;;;;;2.45;1.48;;;;;;;;;;5054113;28;20029;-57
2021/11/02 01:50:28;;;;;;;3.90;1.67;;;;;;;;;;5054462;28;20029;-57
2021/11/02 01:52:54;;;;;;;2.58;1.75;;;;;;;;;;5053125;28;20021;-57
2021/11/02 01:55:20;;;;;;;3.50;1.75;;;;;;;;;;5054224;28;20175;-57
2021/11/02 01:57:47;;;;;;;4.00;1.52;;;;;;;;;;5053321;28;20025;-57
2021/11/02 02:00:14;;;;;;;3.17;1.33;;;;;;;;;;5054169;28;20033;-57
2021/11/02 02:02:47;;;;;;;3.72;1.23;;;;;;;;;;5054174;28;20489;-57
2021/11/02 02:05:29;;;;;;;4.10;1.75;;;;;;;;;;5054077;28;20114;-56
2021/11/02 02:08:14;;;;;;;2.85;1.58;;;;;;;;;;5053228;28;20036;-57
2021/11/02 02:11:00;;;;;;;3.65;1.30;;;;;;;;;;5054051;28;20114;-57
2021/11/02 02:13:29;;;;;;;4.72;2.10;;;;;;;;;;5053718;28;20158;-56
2021/11/02 02:16:18;;;;;;;4.40;2.88;;;;;;;;;;5053883;28;20017;-57
2021/11/02 02:18:44;;;;;;;6.82;1.58;;;;;;;;;;5045880;28;20106;-57
2021/11/02 02:21:10;;;;;;;2.45;1.40;;;;;;;;;;5053933;28;20080;-57
2021/11/02 02:23:56;;;;;;;1.48;0.80;;;;;;;;;;5053641;28;20119;-57
2021/11/02 02:26:40;;;;;;;1.63;0.80;;;;;;;;;;5052730;28;20387;-58
2021/11/02 02:29:07;;;;;;;4.18;1.27;;;;;;;;;;5053670;28;20116;-57
2021/11/02 02:31:35;;;;;;;2.95;1.42;;;;;;;;;;5053822;28;20032;-57
2021/11/02 02:34:02;;;;;;;2.63;0.95;;;;;;;;;;5053567;28;20475;-57
2021/11/02 02:36:31;;;;;;;1.80;0.95;;;;;;;;;;5053083;28;20033;-56
2021/11/02 02:38:58;;;;;;;4.78;1.73;;;;;;;;;;5053411;28;20040;-57
2021/11/02 02:41:24;;;;;;;3.08;1.67;;;;;;;;;;5053332;28;20078;-57
2021/11/02 02:43:51;;;;;;;5.18;1.08;;;;;;;;;;5053009;28;20037;-57
2021/11/02 02:46:17;;;;;;;2.20;1.05;;;;;;;;;;5052753;28;20036;-58
2021/11/02 02:48:44;;;;;;;4.45;0.73;;;;;;;;;;5053415;28;20140;-57
2021/11/02 02:51:10;;;;;;;3.42;1.33;;;;;;;;;;5053225;28;20169;-57
2021/11/02 02:53:37;;;;;;;4.53;1.50;;;;;;;;;;5053185;28;20056;-56
2021/11/02 02:56:03;;;;;;;2.88;1.42;;;;;;;;;;5053305;28;20025;-57
2021/11/02 02:58:31;;;;;;;2.28;1.02;;;;;;;;;;5052519;28;20032;-57
2021/11/02 03:00:57;;;;;;;4.82;1.33;;;;;;;;;;5052986;28;20036;-57
2021/11/02 03:03:24;;;;;;;1.45;0.88;;;;;;;;;;5052438;28;20043;-57
2021/11/02 03:05:53;;;;;;;3.35;1.05;;;;;;;;;;5052986;28;20047;-57
2021/11/02 03:08:20;;;;;;;2.08;1.00;;;;;;;;;;5052296;28;20060;-57
2021/11/02 03:10:46;;;;;;;3.58;0.95;;;;;;;;;;5052586;28;20436;-57
2021/11/02 03:13:15;;;;;;;1.70;1.20;;;;;;;;;;5085219;28;20025;-57
2021/11/02 03:16:00;;;;;;;2.70;0.82;;;;;;;;;;5052890;28;20490;-57
2021/11/02 03:44:10;;;;;;;2.35;2.00;;;;;;;;;;5052394;28;20036;-57
2021/11/02 03:49:52;;;;;;;3.30;1.33;;;;;;;;;;5040044;28;20133;-57
2021/11/02 03:54:58;;;;;;;1.92;1.17;;;;;;;;;;5052384;28;20102;-57
2021/11/02 04:28:26;;;;;;;2.00;1.30;;;;;;;;;;5055324;28;20040;-55
2021/11/02 04:45:03;;;;;;;3.13;1.20;;;;;;;;;;5055602;28;20442;-57
2021/11/02 04:58:01;;;;;;;6.55;1.38;;;;;;;;;;5055851;28;20578;-57
2021/11/02 05:09:15;;;;;;;1.77;1.13;;;;;;;;;;5054408;28;20608;-55
2021/11/02 05:49:58;;;;;;;3.95;1.45;;;;;;;;;;5054591;28;20044;-57
2021/11/02 06:00:48;;;;;;;1.63;0.95;;;;;;;;;;5054147;28;20108;-55
2021/11/02 06:05:55;;;;;;;1.70;0.95;;;;;;;;;;5053867;28;20116;-58
2021/11/02 06:11:10;;;;;;;3.03;1.77;;;;;;;;;;5054223;28;20035;-57
2021/11/02 06:30:14;;;;;;;1.33;0.80;;;;;;;;;;5053552;28;20062;-56
2021/11/02 06:32:46;;;;;;;3.47;1.00;;;;;;;;;;5053704;28;20538;-56
2021/11/02 06:35:21;;;;;;;2.20;1.33;;;;;;;;;;5053661;28;20032;-57
2021/11/02 06:51:10;;;;;;;2.25;1.15;;;;;;;;;;5052825;28;20044;-54
2021/11/02 06:59:21;;;;;;;11.80;10.65;;;;;;;;;;5053531;28;20028;-56
2021/11/02 07:16:11;;;;;;;5.45;1.33;;;;;;;;;;5053115;28;20098;-56
2021/11/02 07:18:38;;;;;;;3.13;1.13;;;;;;;;;;5052460;28;20390;-56
2021/11/02 07:21:15;;;;;;;7.13;2.92;;;;;;;;;;5052245;28;20060;-57
2021/11/02 07:23:52;;;;;;;4.65;2.15;;;;;;;;;;5052785;28;20032;-58
2021/11/02 07:26:40;;;;;;;7.93;2.33;;;;;;;;;;5051373;28;20094;-57
2021/11/02 08:47:23;;;;;;;5.28;2.55;;;;;;;;;;5031273;28;20044;-57
2021/11/02 08:49:49;;;;;;;;;;;;;;;;;;5039175;28;20468;-58
2021/11/02 08:52:16;;;;;;;3.15;1.88;;;;;;;;;;5051714;28;19909;-57
2021/11/02 08:54:42;;;;;;;2.30;1.30;;;;;;;;;;5051594;28;20110;-58
2021/11/02 08:57:09;;;;;;;8.98;2.35;;;;;;;;;;5051071;28;20037;-58
2021/11/02 08:59:35;;;;;;;7.60;2.50;;;;;;;;;;5051537;28;20445;-58
2021/11/02 09:02:06;;;;;;;3.10;1.70;;;;;;;;;;5052698;28;20025;-58
2021/11/02 09:04:33;;;;;;;2.38;1.55;;;;;;;;;;5055344;28;20025;-58
2021/11/02 09:07:01;;;;;;;2.15;1.38;;;;;;;;;;5054120;28;20037;-59
2021/11/02 09:09:31;;;;;;;4.38;1.60;;;;;;;;;;5055558;28;20021;-59
2021/11/02 09:11:57;;;;;;;2.25;1.30;;;;;;;;;;5055324;28;20021;-59
2021/11/02 09:14:25;;;;;;;2.60;1.02;;;;;;;;;;5054915;28;20021;-59
2021/11/02 09:16:52;;;;;;;2.78;1.55;;;;;;;;;;5054505;28;20036;-59
2021/11/02 09:19:18;;;;;;;4.10;1.60;;;;;;;;;;5055202;28;20474;-58
2021/11/02 09:21:47;;;;;;;4.55;2.03;;;;;;;;;;5054909;28;20466;-59
2021/11/02 09:24:16;;;;;;;5.00;1.98;;;;;;;;;;5055062;28;20040;-59
2021/11/02 09:26:42;;;;;;;3.38;1.67;;;;;;;;;;5053943;28;20029;-58
2021/11/02 09:29:10;;;;;;;2.05;1.10;;;;;;;;;;5054874;28;20028;-59
2021/11/02 09:31:36;;;;;;;6.53;1.40;;;;;;;;;;5054869;28;20265;-60
2021/11/02 09:34:03;;;;;;;2.08;1.00;;;;;;;;;;5054463;28;20025;-59
2021/11/02 09:36:40;;;;;;;1.50;0.88;;;;;;;;;;5054258;28;20045;-58
2021/11/02 09:39:06;;;;;;;2.88;0.88;;;;;;;;;;5054669;28;20464;-58
2021/11/02 09:41:47;;;;;;;1.73;0.70;;;;;;;;;;5054844;28;20037;-56
2021/11/02 09:44:14;;;;;;;;;;;;;;;;;;5055272;28;20033;-57
2021/11/02 09:46:59;;;;;;;4.30;0.80;;;;;;;;;;5053503;28;19920;-58
2021/11/02 09:49:44;;;;;;;2.53;1.10;;;;;;;;;;5054463;28;20033;-58
2021/11/02 09:52:10;;;;;;;5.25;1.00;;;;;;;;;;5054311;28;20029;-58
2021/11/02 09:54:45;;;;;;;3.17;1.13;;;;;;;;;;5054015;28;20120;-59
2021/11/02 09:57:28;;;;;;;10.55;1.42;;;;;;;;;;5053476;28;20060;-59
2021/11/02 09:59:54;;;;;;;1.63;0.95;;;;;;;;;;5054445;28;20043;-56
2021/11/02 10:02:24;;;;;;;2.28;0.85;;;;;;;;;;5054377;28;20467;-56
2021/11/02 10:05:06;;;;;;;2.47;1.33;;;;;;;;;;5053871;28;20112;-55
2021/11/02 10:07:34;;;;;;;5.80;1.60;;;;;;;;;;5052877;28;20075;-56
2021/11/02 10:10:07;;;;;;;1.85;1.02;;;;;;;;;;5054413;28;20055;-55
2021/11/02 10:12:51;;;;;;;1.70;1.02;;;;;;;;;;5054021;28;20100;-57
2021/11/02 10:15:21;;;;;;;3.70;1.27;;;;;;;;;;5053787;28;20044;-57
2021/11/02 10:17:54;;;;;;;1.40;0.80;;;;;;;;;;5053449;28;20102;-57
2021/11/02 10:20:20;;;;;;;2.35;1.20;;;;;;;;;;5053575;28;20032;-57
2021/11/02 10:23:15;;;;;;;4.18;0.95;;;;;;;;;;5053769;28;20036;-58
2021/11/02 10:25:53;;;;;;;5.78;1.40;;;;;;;;;;5044135;28;20057;-58
2021/11/02 10:28:38;;;;;;;3.00;1.23;;;;;;;;;;5052429;28;20025;-56
2021/11/02 10:31:11;;;;;;;3.97;1.17;;;;;;;;;;5053452;28;20059;-57
2021/11/02 10:33:37;;;;;;;4.15;1.50;;;;;;;;;;5053650;28;20501;-58
2021/11/02 10:36:22;;;;;;;5.18;1.30;;;;;;;;;;5053080;28;20275;-58
2021/11/02 10:39:04;;;;;;;2.00;1.23;;;;;;;;;;5053369;28;20053;-58
2021/11/02 10:41:34;;;;;;;2.67;1.20;;;;;;;;;;5053405;28;20395;-58
2021/11/02 10:44:21;;;;;;;3.95;1.38;;;;;;;;;;5053195;28;20063;-58
2021/11/02 10:47:13;;;;;;;3.55;1.30;;;;;;;;;;5052055;28;20120;-58
2021/11/02 10:49:40;;;;;;;1.92;1.00;;;;;;;;;;5037377;28;20574;-57
2021/11/02 10:52:08;;;;;;;2.90;1.55;;;;;;;;;;5053123;28;20025;-58
2021/11/02 10:54:49;;;;;;;6.13;1.52;;;;;;;;;;5051649;28;20438;-57
2021/11/02 10:57:15;;;;;;;4.25;1.27;;;;;;;;;;5052799;28;20035;-57
2021/11/02 10:59:47;;;;;;;3.30;1.48;;;;;;;;;;5052956;28;20033;-58
2021/11/02 11:02:21;;;;;;;2.60;1.42;;;;;;;;;;5052978;28;20113;-57
2021/11/02 11:04:47;;;;;;;2.67;1.38;;;;;;;;;;5052964;28;20376;-58
2021/11/02 11:07:14;;;;;;;2.08;1.27;;;;;;;;;;5051812;28;20552;-58
2021/11/02 11:09:41;;;;;;;3.30;1.20;;;;;;;;;;5052930;28;20028;-57
2021/11/02 11:12:09;;;;;;;2.67;1.52;;;;;;;;;;5052764;28;20116;-58
2021/11/02 11:14:36;;;;;;;5.20;1.17;;;;;;;;;;5052591;28;20067;-57
2021/11/02 11:17:04;;;;;;;1.80;1.00;;;;;;;;;;5051809;28;20086;-58
2021/11/02 11:19:37;;;;;;;2.40;1.27;;;;;;;;;;5052652;28;20025;-57
2021/11/02 11:22:03;;;;;;;2.30;1.23;;;;;;;;;;5052678;28;20029;-57
2021/11/02 11:24:34;;;;;;;2.13;1.38;;;;;;;;;;5052146;28;20033;-57
2021/11/02 11:27:08;;;;;;;4.22;1.35;;;;;;;;;;5051981;28;20082;-57
2021/11/02 11:29:35;;;;;;;1.98;1.23;;;;;;;;;;5052301;28;20029;-57
2021/11/02 11:32:02;;;;;;;2.00;1.15;;;;;;;;;;5052543;28;20227;-57
2021/11/02 11:34:30;;;;;;;2.70;1.15;;;;;;;;;;5052455;28;20375;-57
2021/11/02 11:36:59;;;;;;;4.07;0.98;;;;;;;;;;5051407;28;20104;-57
2021/11/02 11:39:27;;;;;;;2.88;1.45;;;;;;;;;;5052552;28;20379;-58
2021/11/02 11:41:53;;;;;;;2.63;1.67;;;;;;;;;;5052400;28;20033;-58
2021/11/02 11:44:20;;;;;;;2.90;0.70;;;;;;;;;;5052214;28;20029;-57
2021/11/02 11:46:47;;;;;;;5.00;0.90;;;;;;;;;;5051696;28;20359;-57
2021/11/02 11:49:32;;;;;;;1.58;0.80;;;;;;;;;;5052210;28;20463;-57
2021/11/02 11:52:00;;;;;;;1.60;0.82;;;;;;;;;;5052748;28;20047;-57
2021/11/02 11:54:45;;;;;;;2.60;0.75;;;;;;;;;;5051748;28;20467;-57
2021/11/02 11:57:13;;;;;;;1.55;0.85;;;;;;;;;;5051377;28;20028;-57
2021/11/02 11:59:40;;;;;;;1.13;0.68;;;;;;;;;;5051986;28;20139;-57
2021/11/02 12:02:12;;;;;;;3.33;1.77;;;;;;;;;;5051606;28;20029;-57
2021/11/02 12:04:49;;;;;;;3.15;0.65;;;;;;;;;;5051533;28;20352;-57
2021/11/02 12:07:18;;;;;;;2.08;0.93;;;;;;;;;;5051520;28;20520;-57
2021/11/02 12:09:45;;;;;;;149.05;33.83;;;;;;;;;;5051191;28;20060;-57
2021/11/02 12:12:12;;;;;;;31.13;7.38;;;;;;;;;;5047660;28;20460;-58
2021/11/02 12:14:49;;;;;;;1.38;0.50;;;;;;;;;;5039180;28;20128;-57
2021/11/02 12:17:17;;;;;;;0.73;0.35;;;;;;;;;;5046851;28;20059;-57
2021/11/02 12:19:46;;;;;;;1.70;0.68;;;;;;;;;;5050633;28;20107;-57
2021/11/02 12:22:18;;;;;;;0.63;0.32;;;;;;;;;;5048727;28;20021;-57
2021/11/02 12:24:44;;;;;;;1.38;0.50;;;;;;;;;;5048958;28;20483;-57
2021/11/02 12:27:10;;;;;;;0.50;0.28;;;;;;;;;;5049034;28;20375;-57
2021/11/02 12:29:38;;;;;;;0.57;0.10;;;;;;;;;;5048979;28;20027;-58
2021/11/02 12:32:05;;;;;;;0.45;0.17;;;;;;;;;;5047379;28;20025;-56
2021/11/02 12:34:51;;;;;;;0.90;0.30;;;;;;;;;;5049591;28;20036;-57
2021/11/02 12:37:18;;;;;;;0.32;0.10;;;;;;;;;;5049763;28;20029;-56
2021/11/02 12:39:45;;;;;;;0.20;0.13;;;;;;;;;;5053368;28;20029;-57
2021/11/02 12:42:11;;;;;;;0.80;0.30;;;;;;;;;;5053652;28;20078;-58
2021/11/02 12:44:38;;;;;;;0.52;0.20;;;;;;;;;;5053802;28;20033;-57
2021/11/02 12:47:06;;;;;;;0.43;0.10;;;;;;;;;;5052375;28;20091;-55
2021/11/02 12:49:52;;;;;;;0.40;0.10;;;;;;;;;;5053413;28;20025;-57
2021/11/02 12:52:19;;;;;;;0.47;0.20;;;;;;;;;;5053442;28;20063;-57
2021/11/02 12:54:57;;;;;;;0.30;0.15;;;;;;;;;;5055502;28;20119;-57
2021/11/02 12:57:31;;;;;;;2.70;0.65;;;;;;;;;;5053285;28;20067;-57
2021/11/02 12:59:59;;;;;;;0.50;0.20;;;;;;;;;;5053722;28;20025;-56
2021/11/02 13:02:31;;;;;;;0.13;0.00;;;;;;;;;;5053253;28;20064;-57
2021/11/02 13:04:59;;;;;;;0.05;0.00;;;;;;;;;;5053354;28;20048;-57
2021/11/02 13:07:26;;;;;;;0.20;0.10;;;;;;;;;;5052112;28;20393;-57
2021/11/02 13:09:52;;;;;;;0.35;0.22;;;;;;;;;;5052462;28;20070;-57
2021/11/02 13:12:24;;;;;;;0.32;0.15;;;;;;;;;;5053669;28;20028;-57
2021/11/02 13:14:50;;;;;;;0.60;0.25;;;;;;;;;;5050493;28;20044;-58
2021/11/02 13:17:18;;;;;;;0.20;0.13;;;;;;;;;;5052220;28;20108;-57
2021/11/02 13:19:48;;;;;;;0.85;0.40;;;;;;;;;;5052823;28;20037;-57
2021/11/02 13:22:16;;;;;;;0.40;0.15;;;;;;;;;;5052321;28;20482;-57
2021/11/02 13:24:55;;;;;;;0.52;0.20;;;;;;;;;;5051903;28;20040;-57
2021/11/02 13:27:31;;;;;;;2.17;1.92;;;;;;;;;;5049663;28;20036;-58
2021/11/02 13:30:17;;;;;;;0.70;0.35;;;;;;;;;;5051533;28;20029;-58
2021/11/02 13:33:03;;;;;;;907.20;238.95;;;;;;;;;;5049632;28;20061;-57
2021/11/02 13:35:37;;;;;;;204.75;44.42;;;;;;;;;;5054578;28;20060;-58
2021/11/02 13:38:19;;;;;;;44.10;10.45;;;;;;;;;;5050567;28;20021;-58
2021/11/02 13:40:45;;;;;;;0.60;0.30;;;;;;;;;;5052978;28;20056;-58
2021/11/02 13:43:10;;;;;;;0.47;0.30;;;;;;;;;;5053465;28;20036;-57
2021/11/02 13:45:37;;;;;;;0.60;0.30;;;;;;;;;;5052555;28;20272;-57
2021/11/02 13:48:04;;;;;;;0.30;0.10;;;;;;;;;;5051053;28;20079;-58
2021/11/02 13:50:30;;;;;;;0.10;0.00;;;;;;;;;;5051147;28;20063;-57
2021/11/02 13:52:57;;;;;;;0.77;0.30;;;;;;;;;;5051110;28;20041;-58
2021/11/02 13:55:23;;;;;;;1.88;0.30;;;;;;;;;;5051895;28;20115;-56
2021/11/02 13:57:49;;;;;;;2.33;0.60;;;;;;;;;;5051418;28;20398;-56
2021/11/02 14:00:15;;;;;;;0.52;0.22;;;;;;;;;;5052392;28;20116;-53
2021/11/02 14:02:42;;;;;;;0.80;0.20;;;;;;;;;;5052785;28;20060;-57
2021/11/02 14:05:09;;;;;;;1.65;0.60;;;;;;;;;;5052753;28;20041;-57
2021/11/02 14:07:35;;;;;;;5.28;0.80;;;;;;;;;;5051197;28;20064;-58
2021/11/02 14:10:05;;;;;;;0.20;0.05;;;;;;;;;;5052424;28;20024;-58
2021/11/02 14:12:53;;;;;;;0.00;0.00;;;;;;;;;;5051130;28;20456;-57
2021/11/02 14:15:20;;;;;;;0.25;0.05;;;;;;;;;;5052083;28;20024;-57
2021/11/02 14:17:47;;;;;;;1.27;1.15;;;;;;;;;;5051194;28;20071;-57
2021/11/02 14:20:33;;;;;;;1.30;0.28;;;;;;;;;;5051786;28;20056;-56
2021/11/02 14:23:03;;;;;;;0.55;0.15;;;;;;;;;;5044800;28;20395;-57
2021/11/02 14:25:33;;;;;;;2.00;0.30;;;;;;;;;;5051475;28;20056;-56
2021/11/02 14:28:00;;;;;;;1.15;0.50;;;;;;;;;;5050736;28;20104;-58
2021/11/02 14:30:32;;;;;;;4.30;0.40;;;;;;;;;;5051774;28;20475;-57
2021/11/02 14:33:05;;;;;;;0.40;0.10;;;;;;;;;;5051257;28;20479;-57
2021/11/02 14:35:37;;;;;;;0.93;0.13;;;;;;;;;;5050366;28;20017;-57
2021/11/02 14:38:04;;;;;;;2.25;0.30;;;;;;;;;;5051064;28;20412;-58
2021/11/02 14:40:31;;;;;;;1.08;0.60;;;;;;;;;;5051282;28;20033;-57
2021/11/02 14:42:58;;;;;;;0.63;0.32;;;;;;;;;;5052099;28;20021;-58
2021/11/02 14:45:40;;;;;;;1.27;0.68;;;;;;;;;;5049695;28;20394;-57
2021/11/02 14:48:24;;;;;;;0.80;0.40;;;;;;;;;;5051872;28;20047;-58
2021/11/02 14:50:57;;;;;;;0.70;0.50;;;;;;;;;;5053225;28;20033;-58
2021/11/02 14:53:29;;;;;;;0.80;0.38;;;;;;;;;;5053450;28;20044;-57
2021/11/02 14:55:58;;;;;;;0.80;0.52;;;;;;;;;;5053179;28;20064;-58
2021/11/02 14:58:39;;;;;;;0.55;0.30;;;;;;;;;;5052336;28;20086;-58
2021/11/02 15:01:06;;;;;;;0.60;0.22;;;;;;;;;;5051934;28;20059;-58
2021/11/02 15:03:33;;;;;;;0.77;0.32;;;;;;;;;;5052743;28;20036;-58
2021/11/02 15:06:11;;;;;;;1.13;0.57;;;;;;;;;;5052775;28;20067;-57
2021/11/02 15:08:38;;;;;;;0.88;0.38;;;;;;;;;;5052564;28;20028;-57
2021/11/02 15:11:10;;;;;;;0.75;0.40;;;;;;;;;;5053327;28;20414;-58
2021/11/02 15:13:37;;;;;;;0.80;0.50;;;;;;;;;;5052451;28;20056;-58
2021/11/02 15:16:04;;;;;;;1.23;0.55;;;;;;;;;;5052531;28;20043;-57
2021/11/02 15:18:37;;;;;;;2.65;0.45;;;;;;;;;;5051909;28;20040;-57
2021/11/02 15:21:03;;;;;;;3.83;0.85;;;;;;;;;;5052947;28;20033;-55
2021/11/02 15:23:48;;;;;;;0.73;0.30;;;;;;;;;;5052678;28;20025;-56
2021/11/02 15:26:15;;;;;;;1.55;0.52;;;;;;;;;;5051722;28;20033;-57
2021/11/02 15:28:42;;;;;;;0.52;0.40;;;;;;;;;;5051467;28;20074;-57
2021/11/02 15:31:08;;;;;;;0.28;0.20;;;;;;;;;;5052597;28;20037;-58
2021/11/02 15:33:34;;;;;;;0.73;0.32;;;;;;;;;;5052599;28;20032;-58
2021/11/02 15:36:11;;;;;;;0.22;0.10;;;;;;;;;;5052158;28;20036;-58
2021/11/02 15:38:37;;;;;;;0.80;0.17;;;;;;;;;;5051013;28;20044;-58
2021/11/02 15:41:16;;;;;;;0.55;0.20;;;;;;;;;;5051396;28;20320;-57
2021/11/02 15:43:55;;;;;;;0.10;0.03;;;;;;;;;;5051272;28;20036;-56
2021/11/02 15:46:32;;;;;;;1.45;0.43;;;;;;;;;;5051454;28;20041;-57
2021/11/02 15:48:58;;;;;;;2.83;0.70;;;;;;;;;;5052265;28;20032;-57
2021/11/02 15:51:25;;;;;;;1.38;0.47;;;;;;;;;;5052394;28;20048;-58
2021/11/02 15:53:52;;;;;;;0.20;0.10;;;;;;;;;;5052403;28;20024;-57
2021/11/02 15:56:27;;;;;;;1.02;0.28;;;;;;;;;;5051504;28;20032;-58
2021/11/02 15:58:55;;;;;;;0.20;0.00;;;;;;;;;;5052048;28;20542;-58
2021/11/02 16:01:32;;;;;;;0.68;0.30;;;;;;;;;;5052665;28;20347;-57
2021/11/02 16:04:07;;;;;;;1.02;0.40;;;;;;;;;;5051845;28;20041;-57
2021/11/02 16:06:33;;;;;;;0.32;0.15;;;;;;;;;;5051838;28;20041;-57
2021/11/02 16:09:01;;;;;;;0.60;0.30;;;;;;;;;;5051891;28;20430;-57
2021/11/02 16:11:27;;;;;;;0.30;0.20;;;;;;;;;;5051001;28;20029;-57
2021/11/02 16:13:54;;;;;;;1.13;0.50;;;;;;;;;;5051765;28;20108;-57
2021/11/02 16:16:20;;;;;;;1.92;0.75;;;;;;;;;;5051173;28;20064;-57
2021/11/02 16:18:46;;;;;;;0.40;0.30;;;;;;;;;;5051907;28;20061;-57
2021/11/02 16:21:12;;;;;;;0.40;0.20;;;;;;;;;;5052163;28;20029;-56
2021/11/02 16:23:40;;;;;;;2.47;0.52;;;;;;;;;;5052000;28;20447;-56
2021/11/02 16:26:35;;;;;;;0.93;0.25;;;;;;;;;;5051182;28;20024;-58
2021/11/02 16:29:11;;;;;;;1.25;0.40;;;;;;;;;;5038786;28;20037;-57
2021/11/02 16:31:37;;;;;;;0.90;0.30;;;;;;;;;;5052046;28;20027;-57
2021/11/02 16:34:17;;;;;;;0.60;0.20;;;;;;;;;;5051791;28;20421;-58
2021/11/02 16:36:43;;;;;;;1.15;0.45;;;;;;;;;;5051124;28;20033;-58
2021/11/02 16:39:15;;;;;;;1.33;0.47;;;;;;;;;;5051329;28;20033;-57
2021/11/02 16:41:42;;;;;;;1.13;0.45;;;;;;;;;;5052066;28;20040;-57
2021/11/02 16:44:09;;;;;;;0.77;0.30;;;;;;;;;;5049292;28;20044;-57
2021/11/02 16:46:39;;;;;;;0.50;0.25;;;;;;;;;;5051193;28;20108;-57
2021/11/02 16:49:05;;;;;;;1.33;0.60;;;;;;;;;;5051655;28;20074;-57
2021/11/02 16:51:43;;;;;;;3.22;0.70;;;;;;;;;;5051428;28;20446;-56
2021/11/02 16:54:10;;;;;;;0.88;0.50;;;;;;;;;;5050222;28;20037;-57
2021/11/02 16:56:36;;;;;;;1.45;0.65;;;;;;;;;;5053652;28;20033;-57
2021/11/02 16:59:02;;;;;;;0.70;0.22;;;;;;;;;;5056742;28;20367;-58
2021/11/02 17:01:34;;;;;;;1.50;0.55;;;;;;;;;;5053857;28;20074;-58
2021/11/02 17:04:08;;;;;;;0.95;0.47;;;;;;;;;;5055491;28;20048;-57
2021/11/02 17:06:34;;;;;;;0.38;0.20;;;;;;;;;;5048301;28;20060;-58
2021/11/02 17:09:00;;;;;;;1.08;0.57;;;;;;;;;;5047779;28;20030;-57
2021/11/02 17:11:26;;;;;;;1.63;0.60;;;;;;;;;;5049534;28;20493;-58
2021/11/02 17:13:53;;;;;;;1.00;0.43;;;;;;;;;;5050102;28;20521;-58
2021/11/02 17:16:20;;;;;;;0.68;0.30;;;;;;;;;;5049119;28;20037;-58
2021/11/02 17:18:46;;;;;;;1.55;0.70;;;;;;;;;;5049727;28;20471;-57
2021/11/02 17:21:16;;;;;;;1.45;0.70;;;;;;;;;;5049504;28;20033;-58
2021/11/02 17:23:43;;;;;;;2.87;0.70;;;;;;;;;;5052674;28;20254;-58
2021/11/02 17:26:11;;;;;;;2.30;0.90;;;;;;;;;;5054298;28;20040;-58
2021/11/02 17:28:37;;;;;;;1.55;0.50;;;;;;;;;;5054017;28;20459;-58
2021/11/02 17:31:05;;;;;;;1.20;0.70;;;;;;;;;;5052545;28;20032;-58
2021/11/02 17:33:31;;;;;;;2.08;0.80;;;;;;;;;;5054422;28;20040;-59
2021/11/02 17:35:58;;;;;;;1.23;0.63;;;;;;;;;;5054687;28;20033;-58
2021/11/02 17:38:24;;;;;;;5.15;0.70;;;;;;;;;;5054309;28;20021;-58
2021/11/02 17:40:51;;;;;;;1.90;1.08;;;;;;;;;;5054741;28;20021;-58
2021/11/02 17:43:18;;;;;;;1.85;0.98;;;;;;;;;;5054674;28;20462;-59
2021/11/02 17:45:44;;;;;;;2.78;0.60;;;;;;;;;;5053934;28;20116;-58
2021/11/02 17:48:15;;;;;;;2.20;0.98;;;;;;;;;;5053900;28;20043;-58
2021/11/02 17:50:41;;;;;;;;;;;;;;;;;;5047204;28;20394;-59
2021/11/02 17:53:07;;;;;;;1.35;0.60;;;;;;;;;;5054046;28;19915;-58
2021/11/02 17:55:33;;;;;;;1.70;0.68;;;;;;;;;;5054259;28;20037;-59
2021/11/02 17:58:00;;;;;;;2.35;0.90;;;;;;;;;;5053599;28;20131;-58
2021/11/02 18:00:27;;;;;;;2.35;1.00;;;;;;;;;;5053952;28;20520;-58
2021/11/02 18:02:54;;;;;;;2.45;1.35;;;;;;;;;;5054197;28;20064;-59
2021/11/02 18:05:28;;;;;;;2.15;1.10;;;;;;;;;;5054649;28;20120;-59
2021/11/02 18:07:57;;;;;;;1.40;0.68;;;;;;;;;;5053242;28;20601;-58
2021/11/02 18:10:25;;;;;;;1.85;1.00;;;;;;;;;;5054115;28;20414;-58
2021/11/02 18:12:51;;;;;;;1.98;1.15;;;;;;;;;;5053980;28;20029;-59
2021/11/02 18:15:17;;;;;;;1.83;1.05;;;;;;;;;;5054062;28;20033;-59
2021/11/02 18:17:47;;;;;;;2.20;1.45;;;;;;;;;;5053272;28;20029;-57
2021/11/02 18:20:13;;;;;;;2.35;1.48;;;;;;;;;;5053677;28;20061;-58
2021/11/02 18:22:41;;;;;;;4.60;1.92;;;;;;;;;;5053932;28;20025;-59
2021/11/02 18:25:08;;;;;;;2.08;1.33;;;;;;;;;;5052045;28;20563;-59
2021/11/02 18:27:34;;;;;;;2.20;1.25;;;;;;;;;;5057499;28;20064;-59
2021/11/02 18:30:00;;;;;;;2.97;1.50;;;;;;;;;;5052250;28;20129;-59
2021/11/02 18:32:26;;;;;;;2.55;1.23;;;;;;;;;;5053846;28;20021;-59
2021/11/02 18:34:52;;;;;;;2.30;1.63;;;;;;;;;;5052607;28;20049;-59
2021/11/02 18:37:19;;;;;;;3.78;2.00;;;;;;;;;;5053027;28;20063;-58
2021/11/02 18:39:46;;;;;;;2.15;1.48;;;;;;;;;;5053895;28;20021;-59
2021/11/02 18:42:12;;;;;;;3.10;1.42;;;;;;;;;;5053291;28;20548;-57
2021/11/02 18:44:38;;;;;;;2.67;1.63;;;;;;;;;;5053338;28;20039;-58
2021/11/02 18:47:06;;;;;;;2.25;1.30;;;;;;;;;;5052860;28;20102;-58
2021/11/02 18:49:32;;;;;;;2.30;1.50;;;;;;;;;;5053489;28;20501;-59
2021/11/02 18:51:58;;;;;;;2.35;1.70;;;;;;;;;;5053469;28;20029;-58
2021/11/02 18:54:25;;;;;;;2.97;2.00;;;;;;;;;;5053210;28;20021;-59
2021/11/02 18:56:51;;;;;;;4.25;2.22;;;;;;;;;;5052197;28;20032;-58
2021/11/02 18:59:18;;;;;;;4.22;2.58;;;;;;;;;;5053321;28;20028;-59
2021/11/02 19:01:44;;;;;;;3.53;2.13;;;;;;;;;;5053133;28;20031;-59
2021/11/02 19:04:11;;;;;;;3.67;2.15;;;;;;;;;;5053002;28;20504;-58
2021/11/02 19:06:37;;;;;;;3.65;2.42;;;;;;;;;;5052434;28;20024;-58
2021/11/02 19:09:03;;;;;;;20.05;9.43;;;;;;;;;;5053017;28;20056;-59
2021/11/02 19:11:29;;;;;;;14.40;8.43;;;;;;;;;;5052798;28;20111;-57
2021/11/02 19:13:56;;;;;;;15.18;8.05;;;;;;;;;;5053225;28;20048;-58
2021/11/02 19:16:22;;;;;;;7.65;5.35;;;;;;;;;;5052199;28;20032;-58
2021/11/02 19:18:48;;;;;;;6.15;4.22;;;;;;;;;;5052724;28;20339;-58
2021/11/02 19:21:14;;;;;;;5.95;3.67;;;;;;;;;;5052785;28;20043;-58
2021/11/02 19:23:41;;;;;;;3.22;2.40;;;;;;;;;;5051701;28;20025;-58
2021/11/02 19:26:08;;;;;;;5.03;2.70;;;;;;;;;;5052566;28;20043;-58
2021/11/02 19:28:34;;;;;;;3.70;2.40;;;;;;;;;;5052688;28;20021;-58
2021/11/02 19:31:01;;;;;;;4.85;2.30;;;;;;;;;;5052573;28;20052;-58
2021/11/02 19:33:27;;;;;;;5.15;2.13;;;;;;;;;;5052897;28;20025;-56